createdAt,value
2023-03-11T00:00:17.261Z,979.55
2023-03-11T00:01:17.344Z,979.59
2023-03-11T00:02:17.496Z,979.63
2023-03-11T00:03:17.523Z,979.61
2023-03-11T00:04:17.592Z,979.62
2023-03-11T00:05:17.728Z,979.56
2023-03-11T00:06:17.735Z,979.55
2023-03-11T00:07:17.787Z,979.49
2023-03-11T00:08:17.858Z,979.55
2023-03-11T00:09:17.947Z,979.58
2023-03-11T00:10:18.002Z,979.61
2023-03-11T00:11:18.051Z,979.64
2023-03-11T00:12:18.142Z,979.67
2023-03-11T00:13:18.214Z,979.65
2023-03-11T00:14:18.311Z,979.58
2023-03-11T00:15:18.345Z,979.56
2023-03-11T00:16:18.493Z,979.53
2023-03-11T00:17:18.493Z,979.56
2023-03-11T00:18:18.580Z,979.52
2023-03-11T00:19:18.699Z,979.52
2023-03-11T00:20:18.736Z,979.48
2023-03-11T00:21:18.830Z,979.53
2023-03-11T00:22:18.907Z,979.58
2023-03-11T00:23:18.998Z,979.59
2023-03-11T00:24:19.069Z,979.58
2023-03-11T00:25:19.129Z,979.55
2023-03-11T00:26:19.201Z,979.60
2023-03-11T00:27:19.274Z,979.58
2023-03-11T00:28:19.375Z,979.54
2023-03-11T00:29:19.482Z,979.51
2023-03-11T00:30:19.559Z,979.48
2023-03-11T00:31:19.716Z,979.52
2023-03-11T00:32:19.777Z,979.52
2023-03-11T00:33:19.793Z,979.51
2023-03-11T00:34:19.899Z,979.50
2023-03-11T00:35:19.936Z,979.51
2023-03-11T00:36:20.032Z,979.52
2023-03-11T00:37:20.109Z,979.51
2023-03-11T00:38:20.215Z,979.57
2023-03-11T00:39:20.285Z,979.57
2023-03-11T00:40:20.327Z,979.64
2023-03-11T00:41:20.411Z,979.65
2023-03-11T00:42:20.501Z,979.63
2023-03-11T00:43:20.575Z,979.57
2023-03-11T00:44:20.687Z,979.54
2023-03-11T00:45:20.710Z,979.52
2023-03-11T00:46:20.879Z,979.51
2023-03-11T00:47:20.889Z,979.62
2023-03-11T00:48:20.975Z,979.63
2023-03-11T00:49:21.052Z,979.69
2023-03-11T00:50:21.133Z,979.76
2023-03-11T00:51:21.214Z,979.78
2023-03-11T00:52:21.309Z,979.70
2023-03-11T00:53:21.374Z,979.68
2023-03-11T00:54:21.499Z,979.63
2023-03-11T00:55:21.549Z,979.63
2023-03-11T00:56:21.650Z,979.73
2023-03-11T00:57:21.746Z,979.78
2023-03-11T00:58:21.811Z,979.79
2023-03-11T00:59:21.924Z,979.80
2023-03-11T01:00:21.994Z,979.82
2023-03-11T01:01:22.221Z,979.70
2023-03-11T01:02:22.167Z,979.60
2023-03-11T01:03:22.275Z,979.62
2023-03-11T01:04:22.447Z,979.57
2023-03-11T01:05:22.411Z,979.62
2023-03-11T01:06:23.415Z,979.75
2023-03-11T01:07:22.600Z,979.73
2023-03-11T01:08:22.677Z,979.82
2023-03-11T01:09:22.782Z,979.79
2023-03-11T01:10:22.872Z,979.76
2023-03-11T01:11:22.985Z,979.77
2023-03-11T01:12:23.056Z,979.77
2023-03-11T01:13:23.165Z,979.70
2023-03-11T01:14:23.235Z,979.64
2023-03-11T01:15:23.284Z,979.61
2023-03-11T01:16:23.485Z,979.61
2023-03-11T01:17:23.457Z,979.68
2023-03-11T01:18:23.563Z,979.79
2023-03-11T01:19:23.642Z,979.83
2023-03-11T01:20:23.746Z,979.76
2023-03-11T01:21:23.830Z,979.75
2023-03-11T01:22:23.943Z,979.70
2023-03-11T01:23:24.011Z,979.69
2023-03-11T01:24:24.113Z,979.68
2023-03-11T01:25:24.193Z,979.65
2023-03-11T01:26:24.233Z,979.64
2023-03-11T01:27:24.283Z,979.57
2023-03-11T01:28:24.398Z,979.54
2023-03-11T01:29:24.491Z,979.47
2023-03-11T01:30:24.573Z,979.43
2023-03-11T01:31:24.711Z,979.39
2023-03-11T01:32:24.728Z,979.39
2023-03-11T01:33:24.756Z,979.45
2023-03-11T01:34:24.897Z,979.55
2023-03-11T01:35:24.936Z,979.53
2023-03-11T01:36:24.999Z,979.44
2023-03-11T01:37:25.092Z,979.46
2023-03-11T01:38:25.190Z,979.54
2023-03-11T01:39:25.295Z,979.64
2023-03-11T01:40:25.396Z,979.67
2023-03-11T01:41:25.451Z,979.78
2023-03-11T01:42:25.550Z,979.87
2023-03-11T01:43:25.607Z,979.94
2023-03-11T01:44:25.785Z,979.95
2023-03-11T01:45:25.795Z,979.95
2023-03-11T01:46:25.987Z,979.92
2023-03-11T01:47:25.972Z,979.96
2023-03-11T01:48:26.038Z,979.88
2023-03-11T01:49:26.161Z,979.87
2023-03-11T01:50:26.200Z,979.90
2023-03-11T01:51:26.303Z,979.95
2023-03-11T01:52:26.359Z,979.91
2023-03-11T01:53:26.441Z,979.89
2023-03-11T01:54:26.556Z,979.81
2023-03-11T01:55:26.640Z,979.67
2023-03-11T01:56:26.749Z,979.63
2023-03-11T01:57:26.802Z,979.61
2023-03-11T01:58:26.870Z,979.57
2023-03-11T01:59:27.033Z,979.57
2023-03-11T02:00:27.099Z,979.61
2023-03-11T02:01:27.166Z,979.59
2023-03-11T02:02:27.279Z,979.60
2023-03-11T02:03:27.292Z,979.60
2023-03-11T02:04:27.391Z,979.64
2023-03-11T02:05:27.501Z,979.65
2023-03-11T02:06:27.632Z,979.60
2023-03-11T02:07:27.671Z,979.62
2023-03-11T02:08:27.768Z,979.63
2023-03-11T02:09:27.892Z,979.63
2023-03-11T02:10:27.987Z,979.59
2023-03-11T02:11:28.070Z,979.57
2023-03-11T02:12:28.113Z,979.55
2023-03-11T02:13:28.202Z,979.55
2023-03-11T02:14:28.442Z,979.54
2023-03-11T02:15:28.451Z,979.60
2023-03-11T02:16:28.514Z,979.58
2023-03-11T02:17:28.544Z,979.54
2023-03-11T02:18:28.666Z,979.54
2023-03-11T02:19:28.721Z,979.55
2023-03-11T02:20:28.816Z,979.58
2023-03-11T02:21:28.948Z,979.61
2023-03-11T02:22:28.999Z,979.62
2023-03-11T02:23:29.116Z,979.57
2023-03-11T02:24:29.212Z,979.56
2023-03-11T02:25:29.283Z,979.51
2023-03-11T02:26:29.381Z,979.52
2023-03-11T02:27:29.482Z,979.55
2023-03-11T02:28:29.597Z,979.63
2023-03-11T02:29:29.685Z,979.66
2023-03-11T02:30:29.731Z,979.65
2023-03-11T02:31:29.941Z,979.62
2023-03-11T02:32:29.970Z,979.64
2023-03-11T02:33:29.981Z,979.68
2023-03-11T02:34:30.094Z,979.77
2023-03-11T02:35:30.178Z,979.76
2023-03-11T02:36:30.269Z,979.75
2023-03-11T02:37:30.375Z,979.74
2023-03-11T02:38:30.479Z,979.69
2023-03-11T02:39:30.526Z,979.71
2023-03-11T02:40:30.613Z,979.76
2023-03-11T02:41:30.677Z,979.73
2023-03-11T02:42:30.794Z,979.67
2023-03-11T02:43:30.883Z,979.57
2023-03-11T02:44:30.969Z,979.59
2023-03-11T02:45:31.065Z,979.60
2023-03-11T02:46:31.239Z,979.58
2023-03-11T02:47:31.259Z,979.56
2023-03-11T02:48:31.361Z,979.56
2023-03-11T02:49:31.419Z,979.55
2023-03-11T02:50:31.570Z,979.58
2023-03-11T02:51:31.796Z,979.56
2023-03-11T02:52:32.628Z,979.55
2023-03-11T02:53:31.933Z,979.58
2023-03-11T02:54:31.956Z,979.60
2023-03-11T02:55:31.946Z,979.58
2023-03-11T02:56:32.035Z,979.65
2023-03-11T02:57:32.100Z,979.64
2023-03-11T02:58:32.241Z,979.65
2023-03-11T02:59:32.325Z,979.61
2023-03-11T03:00:32.469Z,979.58
2023-03-11T03:01:32.476Z,979.57
2023-03-11T03:02:32.522Z,979.58
2023-03-11T03:03:32.641Z,979.61
2023-03-11T03:04:32.885Z,979.59
2023-03-11T03:05:32.797Z,979.57
2023-03-11T03:06:32.894Z,979.58
2023-03-11T03:07:32.979Z,979.56
2023-03-11T03:08:33.161Z,979.52
2023-03-11T03:09:33.177Z,979.48
2023-03-11T03:10:33.256Z,979.44
2023-03-11T03:11:33.367Z,979.40
2023-03-11T03:12:33.426Z,979.33
2023-03-11T03:13:33.552Z,979.29
2023-03-11T03:14:33.603Z,979.25
2023-03-11T03:15:33.739Z,979.23
2023-03-11T03:16:33.768Z,979.17
2023-03-11T03:17:33.867Z,979.17
2023-03-11T03:18:33.976Z,979.15
2023-03-11T03:19:34.010Z,979.15
2023-03-11T03:20:34.084Z,979.13
2023-03-11T03:21:34.241Z,979.16
2023-03-11T03:22:34.275Z,979.14
2023-03-11T03:23:34.371Z,979.20
2023-03-11T03:24:34.458Z,979.25
2023-03-11T03:25:34.518Z,979.32
2023-03-11T03:26:34.634Z,979.37
2023-03-11T03:27:34.693Z,979.43
2023-03-11T03:28:34.790Z,979.52
2023-03-11T03:29:34.842Z,979.62
2023-03-11T03:30:34.988Z,979.63
2023-03-11T03:31:35.016Z,979.59
2023-03-11T03:32:35.142Z,979.55
2023-03-11T03:33:35.165Z,979.50
2023-03-11T03:34:35.288Z,979.53
2023-03-11T03:35:35.382Z,979.52
2023-03-11T03:36:35.468Z,979.55
2023-03-11T03:37:35.600Z,979.61
2023-03-11T03:38:35.666Z,979.67
2023-03-11T03:39:35.776Z,979.67
2023-03-11T03:40:35.809Z,979.66
2023-03-11T03:41:35.925Z,979.69
2023-03-11T03:42:35.972Z,979.73
2023-03-11T03:43:36.084Z,979.73
2023-03-11T03:47:07.165Z,979.88
2023-03-11T03:48:08.192Z,979.90
2023-03-11T03:49:08.273Z,979.95
2023-03-11T03:50:08.331Z,979.95
2023-03-11T03:51:08.402Z,979.96
2023-03-11T03:52:08.460Z,979.96
2023-03-11T03:53:08.532Z,979.97
2023-03-11T03:54:08.789Z,979.91
2023-03-11T03:55:08.680Z,979.83
2023-03-11T03:56:08.750Z,979.86
2023-03-11T03:57:08.837Z,979.89
2023-03-11T03:58:08.913Z,979.84
2023-03-11T03:59:08.982Z,979.77
2023-03-11T04:00:09.120Z,979.75
2023-03-11T04:01:09.135Z,979.77
2023-03-11T04:02:09.254Z,979.82
2023-03-11T04:03:09.287Z,979.79
2023-03-11T04:04:09.362Z,979.83
2023-03-11T04:05:09.427Z,979.77
2023-03-11T04:06:09.516Z,979.81
2023-03-11T04:07:09.607Z,979.92
2023-03-11T04:08:09.665Z,979.95
2023-03-11T04:09:09.745Z,979.94
2023-03-11T04:10:09.813Z,979.94
2023-03-11T04:11:09.880Z,979.89
2023-03-11T04:12:09.944Z,979.88
2023-03-11T08:13:35.650Z,981.23
2023-03-11T08:14:36.665Z,981.30
2023-03-11T08:15:36.771Z,981.30
2023-03-11T08:16:36.853Z,981.31
2023-03-11T08:17:36.954Z,981.31
2023-03-11T08:18:37.068Z,981.36
2023-03-11T08:19:37.170Z,981.43
2023-03-11T08:20:37.205Z,981.41
2023-03-11T08:21:37.287Z,981.50
2023-03-11T08:22:43.399Z,981.47
2023-03-11T08:23:37.466Z,981.42
2023-03-11T08:24:37.584Z,981.38
2023-03-11T08:25:37.677Z,981.34
2023-03-11T08:26:37.768Z,981.33
2023-03-11T08:27:37.911Z,981.38
2023-03-11T08:28:37.915Z,981.41
2023-03-11T08:29:38.028Z,981.50
2023-03-11T08:30:38.105Z,981.51
2023-03-11T08:31:38.402Z,981.54
2023-03-11T08:32:38.354Z,981.50
2023-03-11T08:33:38.394Z,981.50
2023-03-11T08:34:38.451Z,981.50
2023-03-11T08:35:38.581Z,981.52
2023-03-11T08:36:38.604Z,981.53
2023-03-11T08:37:38.688Z,981.55
2023-03-11T08:38:38.839Z,981.58
2023-03-11T08:39:38.920Z,981.57
2023-03-11T10:17:54.619Z,981.88
2023-03-11T10:36:42.793Z,982.02
2023-03-11T10:37:49.657Z,981.96
2023-03-11T10:38:43.884Z,981.95
2023-03-11T10:39:43.914Z,981.96
2023-03-11T10:40:43.947Z,981.98
2023-03-11T10:41:44.001Z,982.00
2023-03-11T10:42:44.056Z,982.01
2023-03-11T10:43:44.140Z,982.00
2023-03-11T10:44:44.187Z,982.02
2023-03-11T10:45:44.256Z,981.98
2023-03-11T10:46:44.287Z,981.94
2023-03-11T10:47:44.349Z,981.94
2023-03-11T10:48:44.450Z,981.91
2023-03-11T10:49:44.471Z,981.86
2023-03-11T10:50:44.563Z,981.88
2023-03-11T10:51:44.588Z,981.84
2023-03-11T10:52:44.633Z,981.83
2023-03-11T10:53:44.725Z,981.86
2023-03-11T10:54:44.751Z,981.81
